createdAt,value
2022-12-18T00:00:19.776Z,22.10
2022-12-18T00:02:52.776Z,22.40
2022-12-18T00:05:26.553Z,22.83
2022-12-18T00:08:03.182Z,21.70
2022-12-18T00:10:37.038Z,21.80
2022-12-18T00:13:10.461Z,21.70
2022-12-18T00:15:44.135Z,21.50
2022-12-18T00:18:20.402Z,21.30
2022-12-18T00:20:51.411Z,21.80
2022-12-18T00:23:24.334Z,21.47
2022-12-18T00:25:57.218Z,20.10
2022-12-18T00:28:30.266Z,20.10
2022-12-18T00:31:10.813Z,20.33
2022-12-18T00:33:43.694Z,19.13
2022-12-18T00:36:18.471Z,19.20
2022-12-18T00:38:51.435Z,19.03
2022-12-18T00:41:42.019Z,18.40
2022-12-18T00:44:17.067Z,18.50
2022-12-18T00:46:50.646Z,19.30
2022-12-18T00:49:24.470Z,18.60
2022-12-18T00:52:05.051Z,18.97
2022-12-18T00:54:38.044Z,19.00
2022-12-18T00:57:11.027Z,19.00
2022-12-18T00:59:43.887Z,19.07
2022-12-18T01:02:17.011Z,18.80
2022-12-18T01:04:49.911Z,19.20
2022-12-18T01:07:23.169Z,18.90
2022-12-18T01:09:55.914Z,18.20
2022-12-18T01:12:28.989Z,17.73
2022-12-18T01:15:01.901Z,18.67
2022-12-18T01:17:34.932Z,18.23
2022-12-18T01:20:08.517Z,17.93
2022-12-18T01:22:42.017Z,19.30
2022-12-18T01:25:15.094Z,20.10
2022-12-18T01:27:48.149Z,19.23
2022-12-18T01:30:21.096Z,19.60
2022-12-18T01:32:53.991Z,19.57
2022-12-18T01:35:26.943Z,19.40
2022-12-18T01:38:02.856Z,19.30
2022-12-18T01:40:35.760Z,19.10
2022-12-18T01:43:08.692Z,20.00
2022-12-18T01:45:41.853Z,18.80
2022-12-18T01:48:15.136Z,18.50
2022-12-18T01:50:48.730Z,18.70
2022-12-18T01:53:23.570Z,18.80
2022-12-18T01:55:58.395Z,18.97
2022-12-18T01:58:38.943Z,18.60
2022-12-18T02:01:12.123Z,18.47
2022-12-18T02:03:54.991Z,18.40
2022-12-18T02:06:38.919Z,18.20
2022-12-18T02:09:19.616Z,18.10
2022-12-18T02:12:06.152Z,18.23
2022-12-18T02:15:05.204Z,18.27
2022-12-18T02:17:39.945Z,17.80
2022-12-18T02:20:26.765Z,17.90
2022-12-18T02:23:13.005Z,17.10
2022-12-18T02:26:08.538Z,17.60
2022-12-18T02:28:46.731Z,17.67
2022-12-18T02:31:21.639Z,18.00
2022-12-18T02:33:56.247Z,18.33
2022-12-18T02:36:31.065Z,18.10
2022-12-18T02:39:05.756Z,17.50
2022-12-18T02:41:39.469Z,17.70
2022-12-18T02:44:17.125Z,16.50
2022-12-18T02:46:51.698Z,17.10
2022-12-18T02:49:26.380Z,16.50
2022-12-18T02:52:22.994Z,16.37
2022-12-18T02:55:06.673Z,16.47
2022-12-18T02:58:10.407Z,16.50
2022-12-18T03:01:00.352Z,16.20
2022-12-18T03:03:44.963Z,16.60
2022-12-18T03:06:32.829Z,17.40
2022-12-18T03:09:10.980Z,17.20
2022-12-18T03:12:02.811Z,17.00
2022-12-18T03:14:38.205Z,17.13
2022-12-18T03:17:12.791Z,16.63
2022-12-18T03:19:47.412Z,15.83
2022-12-18T03:22:21.461Z,15.90
2022-12-18T03:24:55.519Z,16.87
2022-12-18T03:27:30.710Z,16.60
2022-12-18T03:30:09.719Z,16.50
2022-12-18T03:33:00.546Z,16.40
2022-12-18T03:35:35.378Z,16.33
2022-12-18T03:38:08.421Z,16.30
2022-12-18T03:41:08.874Z,16.20
2022-12-18T03:43:43.592Z,16.33
2022-12-18T03:46:27.556Z,17.00
2022-12-18T03:49:05.432Z,16.90
2022-12-18T03:51:48.766Z,16.10
2022-12-18T03:54:22.556Z,15.33
2022-12-18T03:56:57.317Z,15.33
2022-12-18T03:59:31.919Z,14.63
2022-12-18T04:02:06.367Z,15.43
2022-12-18T04:04:44.670Z,15.33
2022-12-18T04:07:18.642Z,14.93
2022-12-18T04:09:53.465Z,15.47
2022-12-18T04:12:27.695Z,16.13
2022-12-18T04:15:00.778Z,16.87
2022-12-18T04:17:33.645Z,16.13
2022-12-18T04:20:06.609Z,15.80
2022-12-18T04:22:39.647Z,16.10
2022-12-18T04:25:12.935Z,15.73
2022-12-18T04:27:45.959Z,15.20
2022-12-18T04:30:19.100Z,14.80
2022-12-18T04:32:52.483Z,15.50
2022-12-18T04:35:25.549Z,15.43
2022-12-18T04:37:58.381Z,14.70
2022-12-18T04:40:31.580Z,14.80
2022-12-18T04:43:04.746Z,14.97
2022-12-18T04:45:38.068Z,14.70
2022-12-18T04:48:11.219Z,15.27
2022-12-18T04:50:44.408Z,15.00
2022-12-18T04:53:17.311Z,15.50
2022-12-18T04:55:53.011Z,15.80
2022-12-18T04:58:25.928Z,15.77
2022-12-18T05:00:59.191Z,15.40
2022-12-18T05:03:32.083Z,14.73
2022-12-18T05:06:05.372Z,13.80
2022-12-18T05:08:39.129Z,13.20
2022-12-18T05:11:19.816Z,12.97
2022-12-18T05:13:52.686Z,13.10
2022-12-18T05:16:25.605Z,13.20
2022-12-18T05:18:58.666Z,13.70
2022-12-18T05:21:36.087Z,13.70
2022-12-18T05:24:09.532Z,15.30
2022-12-18T05:26:43.780Z,15.10
2022-12-18T05:29:16.951Z,15.00
2022-12-18T05:31:50.171Z,16.00
2022-12-18T05:34:23.100Z,16.10
2022-12-18T05:36:56.153Z,15.97
2022-12-18T05:39:29.090Z,15.80
2022-12-18T05:42:01.939Z,15.50
2022-12-18T05:44:34.879Z,14.90
2022-12-18T05:47:07.822Z,14.40
2022-12-18T05:49:40.910Z,14.10
2022-12-18T05:52:18.079Z,14.47
2022-12-18T05:54:51.228Z,15.00
2022-12-18T05:57:24.266Z,15.03
2022-12-18T05:59:57.328Z,14.20
2022-12-18T06:02:30.257Z,13.80
2022-12-18T06:05:03.020Z,13.50
2022-12-18T06:07:36.087Z,14.40
2022-12-18T06:10:09.944Z,14.00
2022-12-18T06:12:43.078Z,14.60
2022-12-18T06:15:16.004Z,14.50
2022-12-18T06:17:49.755Z,14.80
2022-12-18T06:20:22.981Z,15.00
2022-12-18T06:22:55.831Z,17.00
2022-12-18T06:25:28.967Z,17.30
2022-12-18T06:28:02.178Z,17.43
2022-12-18T06:30:35.028Z,16.40
2022-12-18T06:33:09.027Z,16.10
2022-12-18T06:35:42.013Z,15.80
2022-12-18T06:38:15.003Z,16.10
2022-12-18T06:40:48.016Z,15.70
2022-12-18T06:43:21.178Z,15.80
2022-12-18T06:45:59.835Z,15.90
2022-12-18T06:48:35.227Z,16.30
2022-12-18T06:51:08.788Z,16.00
2022-12-18T06:53:42.092Z,15.80
2022-12-18T06:56:15.206Z,16.00
2022-12-18T06:58:52.301Z,15.90
2022-12-18T07:01:25.574Z,15.80
2022-12-18T07:03:59.639Z,15.93
2022-12-18T07:06:32.501Z,15.40
2022-12-18T07:09:05.473Z,15.30
2022-12-18T07:11:41.274Z,15.10
2022-12-18T07:14:14.232Z,15.70
2022-12-18T07:16:47.285Z,15.87
2022-12-18T07:19:20.387Z,15.47
2022-12-18T07:21:54.025Z,16.00
2022-12-18T07:24:27.000Z,15.80
2022-12-18T07:26:59.859Z,16.03
2022-12-18T07:29:32.621Z,15.90
2022-12-18T07:32:08.476Z,16.40
2022-12-18T07:34:41.800Z,16.60
2022-12-18T07:37:14.836Z,16.10
2022-12-18T07:39:50.065Z,15.50
2022-12-18T07:42:34.664Z,15.50
2022-12-18T07:45:08.432Z,15.70
2022-12-18T07:47:41.447Z,15.87
2022-12-18T07:50:17.540Z,15.83
2022-12-18T07:52:50.493Z,15.80
2022-12-18T07:55:23.436Z,15.70
2022-12-18T07:58:00.983Z,15.87
2022-12-18T08:00:40.296Z,15.27
2022-12-18T08:03:16.895Z,14.80
2022-12-18T08:05:51.626Z,14.93
2022-12-18T08:08:30.080Z,16.40
2022-12-18T08:11:03.922Z,15.17
2022-12-18T08:13:40.256Z,14.80
2022-12-18T08:16:14.379Z,15.50
2022-12-18T08:18:53.152Z,15.20
2022-12-18T08:21:36.092Z,15.00
2022-12-18T08:24:14.955Z,14.40
2022-12-18T08:27:13.218Z,14.90
2022-12-18T08:29:27.794Z,15.00
2022-12-18T08:32:10.354Z,15.00
2022-12-18T08:34:43.226Z,15.10
2022-12-18T08:37:22.902Z,15.23
2022-12-18T08:40:01.815Z,17.10
2022-12-18T08:42:52.107Z,17.17
2022-12-18T08:45:25.078Z,16.63
2022-12-18T08:47:58.050Z,16.60
2022-12-18T08:50:33.407Z,16.70
2022-12-18T08:53:06.313Z,15.80
2022-12-18T08:55:39.216Z,16.00
2022-12-18T08:58:12.337Z,15.30
2022-12-18T09:00:45.195Z,15.40
2022-12-18T09:03:22.952Z,15.50
2022-12-18T09:05:56.393Z,15.50
2022-12-18T09:08:36.022Z,15.10
2022-12-18T09:11:11.172Z,15.80
2022-12-18T09:13:46.530Z,15.70
2022-12-18T09:16:28.667Z,15.80
2022-12-18T09:19:05.392Z,15.70
2022-12-18T09:21:48.326Z,15.47
2022-12-18T09:24:20.649Z,15.30
2022-12-18T09:26:57.634Z,16.07
2022-12-18T09:29:29.093Z,16.40
2022-12-18T09:32:02.121Z,16.13
2022-12-18T09:34:35.635Z,16.30
2022-12-18T09:37:08.578Z,16.40
2022-12-18T09:39:46.963Z,15.90
2022-12-18T09:42:26.290Z,15.10
2022-12-18T09:45:00.105Z,15.77
2022-12-18T09:47:37.875Z,15.20
2022-12-18T09:50:17.186Z,14.67
2022-12-18T09:52:48.873Z,14.40
2022-12-18T09:55:40.556Z,14.60
2022-12-18T09:58:26.884Z,15.30
2022-12-18T10:01:00.105Z,15.30
2022-12-18T10:03:33.302Z,15.40
2022-12-18T10:06:20.718Z,14.80
2022-12-18T10:09:08.993Z,13.53
2022-12-18T10:12:07.045Z,14.13
2022-12-18T10:14:51.663Z,13.67
2022-12-18T10:17:47.566Z,13.97
2022-12-18T10:20:52.844Z,13.90
2022-12-18T10:23:27.851Z,13.77
2022-12-18T10:26:08.650Z,14.20
2022-12-18T10:28:43.617Z,13.73
2022-12-18T10:31:25.212Z,13.50
2022-12-18T10:33:59.102Z,13.60
2022-12-18T10:36:32.173Z,13.60
2022-12-18T10:39:25.676Z,13.30
2022-12-18T10:42:03.575Z,13.20
2022-12-18T10:44:36.769Z,13.10
2022-12-18T10:47:12.039Z,12.87
2022-12-18T10:49:47.071Z,13.70
2022-12-18T10:52:27.517Z,13.60
2022-12-18T10:55:06.189Z,13.50
2022-12-18T10:57:44.418Z,14.07
2022-12-18T11:00:31.383Z,13.57
2022-12-18T11:03:04.443Z,14.00
2022-12-18T11:05:39.400Z,14.00
2022-12-18T11:08:14.434Z,13.60
2022-12-18T11:10:50.076Z,13.80
2022-12-18T11:13:24.803Z,12.80
2022-12-18T11:15:58.145Z,13.30
2022-12-18T11:18:35.623Z,13.50
2022-12-18T11:21:13.393Z,12.90
2022-12-18T11:23:59.139Z,13.40
2022-12-18T11:26:36.804Z,13.40
2022-12-18T11:29:18.136Z,13.63
2022-12-18T11:31:51.976Z,13.30
2022-12-18T11:34:30.535Z,12.80
2022-12-18T11:37:05.576Z,13.00
2022-12-18T11:39:55.490Z,13.20
2022-12-18T11:42:39.530Z,13.27
2022-12-18T11:45:20.920Z,12.87
2022-12-18T11:48:11.215Z,13.40
2022-12-18T11:50:51.744Z,12.70
2022-12-18T11:53:25.137Z,13.10
2022-12-18T11:56:02.879Z,13.00
2022-12-18T11:58:52.415Z,12.80
2022-12-18T12:01:44.429Z,12.80
2022-12-18T12:04:26.576Z,12.90
2022-12-18T12:07:04.369Z,13.20
2022-12-18T12:09:54.546Z,13.47
2022-12-18T12:12:41.819Z,13.20
2022-12-18T12:15:18.356Z,13.20
2022-12-18T12:17:59.725Z,13.00
2022-12-18T12:20:44.093Z,12.40
2022-12-18T12:23:34.386Z,12.90
2022-12-18T12:26:12.457Z,12.80
2022-12-18T12:29:06.913Z,12.73
2022-12-18T12:31:58.986Z,12.80
2022-12-18T12:34:45.977Z,12.50
2022-12-18T12:37:37.508Z,12.47
2022-12-18T12:40:41.231Z,12.90
2022-12-18T12:43:10.046Z,12.20
2022-12-18T12:46:07.812Z,12.30
2022-12-18T12:48:58.771Z,11.97
2022-12-18T12:51:35.950Z,12.00
2022-12-18T12:54:15.550Z,11.83
2022-12-18T12:57:00.522Z,12.00
2022-12-18T12:59:56.315Z,11.70
2022-12-18T13:02:47.000Z,11.80
2022-12-18T13:05:38.385Z,12.73
2022-12-18T13:08:15.923Z,12.70
2022-12-18T13:10:50.087Z,12.90
2022-12-18T13:13:24.368Z,12.40
2022-12-18T13:16:13.833Z,12.03
2022-12-18T13:18:49.544Z,11.80
2022-12-18T13:21:27.612Z,11.40
2022-12-18T13:24:01.368Z,11.53
2022-12-18T13:26:38.901Z,12.30
2022-12-18T13:29:11.890Z,12.60
2022-12-18T13:31:50.618Z,12.07
2022-12-18T13:37:00.293Z,12.40
2022-12-18T13:39:39.984Z,12.40
2022-12-18T13:42:16.290Z,12.20
2022-12-18T13:44:50.275Z,12.10
2022-12-18T13:47:40.912Z,11.90
2022-12-18T13:50:35.919Z,12.50
2022-12-18T13:53:04.582Z,12.40
2022-12-18T13:55:39.329Z,12.00
2022-12-18T13:58:13.365Z,12.20
2022-12-18T14:00:49.868Z,12.50
2022-12-18T14:03:31.487Z,12.93
2022-12-18T14:06:12.394Z,12.20
2022-12-18T14:08:47.191Z,11.60
2022-12-18T14:11:27.732Z,12.70
2022-12-18T14:14:02.602Z,13.00
2022-12-18T14:16:36.435Z,12.60
2022-12-18T14:19:15.648Z,12.90
2022-12-18T14:21:47.693Z,12.60
2022-12-18T14:24:24.901Z,13.00
2022-12-18T14:26:57.831Z,12.10
2022-12-18T14:29:34.901Z,12.70
2022-12-18T14:32:19.778Z,11.97
2022-12-18T14:34:58.071Z,12.07
2022-12-18T14:37:31.937Z,12.40
2022-12-18T14:40:11.531Z,12.50
2022-12-18T14:42:44.725Z,12.40
2022-12-18T14:45:42.170Z,12.40
2022-12-18T14:48:15.422Z,12.30
2022-12-18T14:50:50.382Z,12.30
2022-12-18T14:53:28.848Z,12.20
2022-12-18T14:56:01.906Z,12.20
2022-12-18T14:58:35.062Z,12.50
2022-12-18T15:01:08.029Z,12.50
2022-12-18T15:03:52.193Z,12.70
2022-12-18T15:06:30.062Z,12.90
2022-12-18T15:09:03.830Z,13.43
2022-12-18T15:11:41.701Z,12.20
2022-12-18T15:14:38.872Z,12.00
2022-12-18T15:17:22.410Z,12.50
2022-12-18T15:19:59.179Z,12.60
2022-12-18T15:22:34.089Z,12.80
2022-12-18T15:25:08.809Z,13.00
2022-12-18T15:27:42.345Z,12.97
2022-12-18T15:30:17.422Z,12.90
2022-12-18T15:32:50.625Z,12.10
2022-12-18T15:35:28.290Z,11.60
2022-12-18T15:38:01.288Z,11.13
2022-12-18T15:40:34.336Z,11.40
2022-12-18T15:43:25.435Z,11.53
2022-12-18T15:45:58.528Z,11.30
2022-12-18T15:48:31.784Z,11.40
2022-12-18T15:51:05.319Z,11.93
2022-12-18T15:53:43.806Z,10.80
2022-12-18T15:56:34.710Z,10.63
2022-12-18T15:59:09.875Z,10.70
2022-12-18T16:01:45.665Z,11.07
2022-12-18T16:04:22.895Z,11.00
2022-12-18T16:07:14.303Z,10.40
2022-12-18T16:09:29.981Z,10.60
2022-12-18T16:12:02.921Z,10.67
2022-12-18T16:14:36.423Z,10.63
2022-12-18T16:17:11.741Z,10.27
2022-12-18T16:19:46.474Z,10.40
2022-12-18T16:22:27.531Z,10.23
2022-12-18T16:25:01.473Z,10.50
2022-12-18T16:27:34.278Z,10.80
2022-12-18T16:30:07.800Z,10.63
2022-12-18T16:32:40.613Z,10.40
2022-12-18T16:35:15.317Z,10.30
2022-12-18T16:37:48.394Z,10.50
2022-12-18T16:40:22.134Z,10.30
2022-12-18T16:42:55.186Z,10.33
2022-12-18T16:45:28.149Z,9.90
2022-12-18T16:48:01.153Z,9.73
2022-12-18T16:50:34.114Z,9.60
2022-12-18T16:53:06.996Z,9.83
2022-12-18T16:55:39.855Z,10.00
2022-12-18T16:58:12.762Z,10.10
2022-12-18T17:00:45.692Z,9.80
2022-12-18T17:03:22.088Z,10.10
2022-12-18T17:05:55.227Z,10.60
2022-12-18T17:08:28.317Z,10.80
2022-12-18T17:11:02.532Z,10.83
2022-12-18T17:13:35.534Z,11.00
2022-12-18T17:16:16.284Z,11.20
2022-12-18T17:18:50.185Z,10.43
2022-12-18T17:21:24.265Z,10.70
2022-12-18T17:23:57.332Z,11.00
2022-12-18T17:26:30.414Z,10.90
2022-12-18T17:29:03.352Z,10.50
2022-12-18T17:31:37.554Z,10.20
2022-12-18T17:34:10.537Z,10.60
2022-12-18T17:36:43.590Z,10.13
2022-12-18T17:39:18.320Z,9.80
2022-12-18T17:41:51.340Z,9.70
2022-12-18T17:44:24.202Z,9.70
2022-12-18T17:46:59.409Z,9.50
2022-12-18T17:49:32.953Z,9.50
2022-12-18T17:52:05.894Z,9.17
2022-12-18T17:54:44.227Z,9.43
2022-12-18T17:57:17.394Z,9.40
2022-12-18T17:59:50.237Z,9.70
2022-12-18T18:02:23.371Z,11.47
2022-12-18T18:04:56.441Z,10.27
2022-12-18T18:07:33.228Z,10.33
2022-12-18T18:10:06.146Z,10.00
2022-12-18T18:12:57.632Z,9.90
2022-12-18T18:15:30.701Z,9.80
2022-12-18T18:18:04.352Z,9.93
2022-12-18T18:20:37.201Z,10.60
2022-12-18T18:23:10.651Z,10.20
2022-12-18T18:25:43.704Z,10.33
2022-12-18T18:28:16.592Z,10.50
2022-12-18T18:30:49.626Z,10.50
2022-12-18T18:33:22.785Z,10.80
2022-12-18T18:35:56.017Z,10.80
2022-12-18T18:38:28.988Z,10.57
2022-12-18T18:41:13.220Z,10.70
2022-12-18T18:43:46.247Z,11.10
2022-12-18T18:46:19.961Z,11.60
2022-12-18T18:48:53.082Z,11.80
2022-12-18T18:51:31.483Z,11.90
2022-12-18T18:54:00.646Z,12.43
2022-12-18T18:57:03.987Z,12.93
2022-12-18T18:59:12.685Z,12.60
2022-12-18T19:01:45.994Z,12.97
2022-12-18T19:04:19.262Z,13.20
2022-12-18T19:06:52.503Z,12.90
2022-12-18T19:09:26.106Z,12.97
2022-12-18T19:12:16.931Z,13.40
2022-12-18T19:14:50.014Z,13.70
2022-12-18T19:17:26.393Z,14.10
2022-12-18T19:19:57.001Z,14.20
2022-12-18T19:22:30.995Z,14.30
2022-12-18T19:25:03.878Z,14.50
2022-12-18T19:27:37.993Z,14.70
2022-12-18T19:30:12.091Z,14.90
2022-12-18T19:32:45.192Z,15.40
2022-12-18T19:35:18.536Z,14.90
2022-12-18T19:37:51.508Z,16.20
2022-12-18T19:40:24.395Z,16.70
2022-12-18T19:42:57.410Z,16.00
2022-12-18T19:45:30.412Z,15.90
2022-12-18T19:48:04.545Z,16.10
2022-12-18T19:50:38.082Z,15.30
2022-12-18T19:53:33.412Z,15.30
2022-12-18T19:55:49.857Z,15.60
2022-12-18T19:58:23.336Z,15.23
2022-12-18T20:00:57.465Z,15.43
2022-12-18T20:03:32.610Z,15.30
2022-12-18T20:06:21.699Z,15.77
2022-12-18T20:08:58.011Z,16.53
2022-12-18T20:11:29.253Z,16.40
2022-12-18T20:14:05.789Z,17.20
2022-12-18T20:16:38.821Z,16.90
2022-12-18T20:19:12.573Z,17.10
2022-12-18T20:21:45.538Z,15.90
2022-12-18T20:24:18.774Z,16.50
2022-12-18T20:26:51.829Z,15.00
2022-12-18T20:29:24.791Z,14.50
2022-12-18T20:31:57.885Z,13.60
2022-12-18T20:34:30.988Z,14.50
2022-12-18T20:37:04.788Z,14.00
2022-12-18T20:39:38.228Z,14.40
2022-12-18T20:42:11.051Z,13.50
2022-12-18T20:44:44.431Z,14.87
2022-12-18T20:47:17.944Z,14.77
2022-12-18T20:49:50.934Z,15.73
2022-12-18T20:52:27.552Z,15.40
2022-12-18T20:55:00.623Z,15.63
2022-12-18T20:57:34.197Z,15.40
2022-12-18T21:00:08.798Z,15.00
2022-12-18T21:02:43.513Z,14.20
2022-12-18T21:05:16.664Z,13.73
2022-12-18T21:07:49.432Z,14.53
2022-12-18T21:10:25.515Z,15.50
2022-12-18T21:13:03.005Z,16.33
2022-12-18T21:15:32.795Z,14.93
2022-12-18T21:18:06.289Z,13.40
2022-12-18T21:20:39.248Z,14.00
2022-12-18T21:23:16.626Z,12.80
2022-12-18T21:25:48.195Z,12.50
2022-12-18T21:28:20.886Z,13.53
2022-12-18T21:30:53.963Z,14.27
2022-12-18T21:33:26.986Z,13.93
2022-12-18T21:36:04.255Z,13.30
2022-12-18T21:38:37.973Z,13.60
2022-12-18T21:41:19.185Z,13.60
2022-12-18T21:44:10.999Z,13.93
2022-12-18T21:46:48.841Z,14.20
2022-12-18T21:49:21.959Z,14.40
2022-12-18T21:51:56.298Z,13.20
2022-12-18T21:54:30.341Z,13.40
2022-12-18T21:57:14.881Z,13.13
2022-12-18T21:59:56.883Z,15.50
2022-12-18T22:02:30.142Z,14.60
2022-12-18T22:05:03.157Z,14.00
2022-12-18T22:07:36.277Z,15.20
2022-12-18T22:10:09.499Z,14.10
2022-12-18T22:12:43.244Z,12.70
2022-12-18T22:15:21.865Z,13.37
2022-12-18T22:17:51.287Z,10.83
2022-12-18T22:20:25.576Z,12.80
2022-12-18T22:23:01.082Z,13.00
2022-12-18T22:25:39.856Z,12.90
2022-12-18T22:28:30.648Z,10.80
2022-12-18T22:31:03.724Z,10.87
2022-12-18T22:33:36.766Z,11.20
2022-12-18T22:36:12.712Z,12.70
2022-12-18T22:38:46.654Z,12.00
2022-12-18T22:41:19.884Z,11.30
2022-12-18T22:43:52.904Z,12.20
2022-12-18T22:46:28.364Z,13.20
2022-12-18T22:49:01.436Z,12.50
2022-12-18T22:51:34.477Z,11.90
2022-12-18T22:54:07.415Z,12.30
2022-12-18T22:56:40.363Z,10.50
2022-12-18T22:59:14.458Z,9.80
2022-12-18T23:01:48.583Z,11.27
2022-12-18T23:04:22.424Z,11.30
2022-12-18T23:06:56.857Z,11.70
2022-12-18T23:09:30.350Z,12.60
2022-12-18T23:12:03.327Z,11.70
2022-12-18T23:14:36.289Z,9.70
2022-12-18T23:17:09.203Z,9.47
2022-12-18T23:19:48.554Z,10.57
2022-12-18T23:22:16.368Z,9.50
2022-12-18T23:24:49.473Z,9.07
2022-12-18T23:27:23.063Z,11.17
2022-12-18T23:29:56.260Z,9.40
2022-12-18T23:32:30.157Z,9.60
2022-12-18T23:35:04.424Z,9.00
2022-12-18T23:37:58.833Z,9.43
2022-12-18T23:40:13.705Z,9.10
2022-12-18T23:42:46.621Z,8.77
2022-12-18T23:45:19.510Z,8.33
2022-12-18T23:47:52.402Z,8.10
2022-12-18T23:50:29.335Z,7.60
2022-12-18T23:53:05.381Z,7.80
2022-12-18T23:55:38.913Z,7.60
2022-12-18T23:58:12.653Z,8.80
